Terminal Aerodrome Forecast
Issued by NWS

Home | Current Version | Previous Version | Text Only | Print | Product List | Glossary On
Versions: 1 2 3 4 5 6 7 8 9 10 11 12 13 14 15 16 17 18 19 20 21 22 23 24 25 26 27 28 29
719
FTUS43 KDLH 111033 AAB
TAFHYR
TAF AMD
KHYR 111033Z 1111/1206 18005KT 6SM -SN SCT035 OVC045
     FM111200 18003KT 6SM -SN BKN025 OVC035
     FM111600 VRB05KT P6SM -SN OVC020
     FM111800 34008G16KT P6SM -SN BKN030
     FM112000 34013G24KT P6SM BKN035
     FM120200 34009G16KT P6SM SCT030=

USA.gov is the U.S. government's official web portal to all federal, state and local government web resources and services.